sensor_id;sensor_type;location;lat;lon;timestamp;P1;durP1;ratioP1;P2;durP2;ratioP2
17915;SDS011;9083;49.156;8.982;2022-08-05T00:01:00;2.72;;;2.25;;
17915;SDS011;9083;49.156;8.982;2022-08-05T00:03:27;2.40;;;2.30;;
17915;SDS011;9083;49.156;8.982;2022-08-05T00:05:53;5.80;;;2.35;;
17915;SDS011;9083;49.156;8.982;2022-08-05T00:08:20;2.70;;;2.25;;
17915;SDS011;9083;49.156;8.982;2022-08-05T00:10:46;2.22;;;2.13;;
17915;SDS011;9083;49.156;8.982;2022-08-05T00:13:12;5.63;;;2.88;;
17915;SDS011;9083;49.156;8.982;2022-08-05T00:15:40;4.78;;;2.70;;
17915;SDS011;9083;49.156;8.982;2022-08-05T00:18:07;2.30;;;2.10;;
17915;SDS011;9083;49.156;8.982;2022-08-05T00:20:33;4.25;;;2.35;;
17915;SDS011;9083;49.156;8.982;2022-08-05T00:23:00;3.22;;;2.20;;
17915;SDS011;9083;49.156;8.982;2022-08-05T00:25:26;2.55;;;2.45;;
17915;SDS011;9083;49.156;8.982;2022-08-05T00:27:53;2.78;;;2.47;;
17915;SDS011;9083;49.156;8.982;2022-08-05T00:30:19;3.58;;;2.40;;
17915;SDS011;9083;49.156;8.982;2022-08-05T00:32:47;7.10;;;2.33;;
17915;SDS011;9083;49.156;8.982;2022-08-05T00:35:13;2.85;;;1.98;;
17915;SDS011;9083;49.156;8.982;2022-08-05T00:37:40;3.13;;;2.20;;
17915;SDS011;9083;49.156;8.982;2022-08-05T00:40:07;5.45;;;2.40;;
17915;SDS011;9083;49.156;8.982;2022-08-05T00:42:34;2.63;;;2.40;;
17915;SDS011;9083;49.156;8.982;2022-08-05T00:45:01;2.65;;;2.17;;
17915;SDS011;9083;49.156;8.982;2022-08-05T00:47:28;3.60;;;1.98;;
17915;SDS011;9083;49.156;8.982;2022-08-05T00:49:56;2.40;;;2.00;;
17915;SDS011;9083;49.156;8.982;2022-08-05T00:52:22;2.73;;;2.53;;
17915;SDS011;9083;49.156;8.982;2022-08-05T00:54:49;3.40;;;2.00;;
17915;SDS011;9083;49.156;8.982;2022-08-05T00:57:15;3.00;;;2.30;;
17915;SDS011;9083;49.156;8.982;2022-08-05T00:59:42;2.77;;;2.53;;
17915;SDS011;9083;49.156;8.982;2022-08-05T01:02:08;4.83;;;2.23;;
17915;SDS011;9083;49.156;8.982;2022-08-05T01:04:35;5.07;;;2.40;;
17915;SDS011;9083;49.156;8.982;2022-08-05T01:07:03;8.02;;;2.50;;
17915;SDS011;9083;49.156;8.982;2022-08-05T01:09:29;11.43;;;2.73;;
17915;SDS011;9083;49.156;8.982;2022-08-05T01:11:56;4.40;;;2.50;;
17915;SDS011;9083;49.156;8.982;2022-08-05T01:14:24;4.27;;;2.50;;
17915;SDS011;9083;49.156;8.982;2022-08-05T01:16:53;5.27;;;2.50;;
17915;SDS011;9083;49.156;8.982;2022-08-05T01:19:24;7.73;;;2.83;;
17915;SDS011;9083;49.156;8.982;2022-08-05T01:21:54;7.77;;;3.00;;
17915;SDS011;9083;49.156;8.982;2022-08-05T01:24:34;10.53;;;2.70;;
17915;SDS011;9083;49.156;8.982;2022-08-05T01:27:08;7.30;;;2.83;;
17915;SDS011;9083;49.156;8.982;2022-08-05T01:29:40;5.83;;;2.53;;
17915;SDS011;9083;49.156;8.982;2022-08-05T01:32:14;5.47;;;3.00;;
17915;SDS011;9083;49.156;8.982;2022-08-05T01:34:44;12.10;;;3.70;;
17915;SDS011;9083;49.156;8.982;2022-08-05T01:37:13;10.83;;;2.80;;
17915;SDS011;9083;49.156;8.982;2022-08-05T01:39:41;5.40;;;2.70;;
17915;SDS011;9083;49.156;8.982;2022-08-05T01:42:10;6.57;;;2.40;;
17915;SDS011;9083;49.156;8.982;2022-08-05T01:44:39;5.43;;;2.43;;
17915;SDS011;9083;49.156;8.982;2022-08-05T01:47:06;5.57;;;3.00;;
17915;SDS011;9083;49.156;8.982;2022-08-05T01:49:32;3.93;;;2.57;;
17915;SDS011;9083;49.156;8.982;2022-08-05T01:52:00;8.43;;;2.60;;
17915;SDS011;9083;49.156;8.982;2022-08-05T01:54:30;4.05;;;3.30;;
17915;SDS011;9083;49.156;8.982;2022-08-05T01:56:56;8.18;;;2.85;;
17915;SDS011;9083;49.156;8.982;2022-08-05T01:59:24;5.63;;;3.00;;
17915;SDS011;9083;49.156;8.982;2022-08-05T02:01:53;4.70;;;2.90;;
17915;SDS011;9083;49.156;8.982;2022-08-05T02:04:21;4.33;;;2.80;;
17915;SDS011;9083;49.156;8.982;2022-08-05T02:06:48;4.83;;;2.73;;
17915;SDS011;9083;49.156;8.982;2022-08-05T02:09:15;11.63;;;3.00;;
17915;SDS011;9083;49.156;8.982;2022-08-05T02:11:46;4.13;;;2.42;;
17915;SDS011;9083;49.156;8.982;2022-08-05T02:14:16;4.50;;;2.55;;
17915;SDS011;9083;49.156;8.982;2022-08-05T02:16:43;3.07;;;2.63;;
17915;SDS011;9083;49.156;8.982;2022-08-05T02:19:12;2.83;;;2.67;;
17915;SDS011;9083;49.156;8.982;2022-08-05T02:21:41;3.50;;;2.67;;
17915;SDS011;9083;49.156;8.982;2022-08-05T02:24:09;4.10;;;2.72;;
17915;SDS011;9083;49.156;8.982;2022-08-05T02:26:40;3.37;;;2.50;;
17915;SDS011;9083;49.156;8.982;2022-08-05T02:29:09;5.97;;;3.10;;
17915;SDS011;9083;49.156;8.982;2022-08-05T02:31:36;4.50;;;2.60;;
17915;SDS011;9083;49.156;8.982;2022-08-05T02:34:05;5.23;;;2.33;;
17915;SDS011;9083;49.156;8.982;2022-08-05T02:36:34;8.37;;;2.47;;
17915;SDS011;9083;49.156;8.982;2022-08-05T02:39:02;5.83;;;2.73;;
17915;SDS011;9083;49.156;8.982;2022-08-05T02:41:29;7.10;;;3.07;;
17915;SDS011;9083;49.156;8.982;2022-08-05T02:43:57;2.60;;;2.40;;
17915;SDS011;9083;49.156;8.982;2022-08-05T02:46:24;4.43;;;2.23;;
17915;SDS011;9083;49.156;8.982;2022-08-05T02:48:51;5.07;;;2.70;;
17915;SDS011;9083;49.156;8.982;2022-08-05T02:51:19;5.23;;;3.00;;
17915;SDS011;9083;49.156;8.982;2022-08-05T02:53:46;3.08;;;2.60;;
17915;SDS011;9083;49.156;8.982;2022-08-05T02:56:13;4.83;;;2.60;;
17915;SDS011;9083;49.156;8.982;2022-08-05T02:58:41;5.97;;;2.67;;
17915;SDS011;9083;49.156;8.982;2022-08-05T03:01:08;8.40;;;2.87;;
17915;SDS011;9083;49.156;8.982;2022-08-05T03:03:36;7.07;;;2.50;;
17915;SDS011;9083;49.156;8.982;2022-08-05T03:06:03;2.87;;;2.67;;
17915;SDS011;9083;49.156;8.982;2022-08-05T03:08:30;8.13;;;2.90;;
17915;SDS011;9083;49.156;8.982;2022-08-05T03:10:59;7.53;;;2.43;;
17915;SDS011;9083;49.156;8.982;2022-08-05T03:13:25;7.27;;;2.40;;
17915;SDS011;9083;49.156;8.982;2022-08-05T03:15:51;6.80;;;2.92;;
17915;SDS011;9083;49.156;8.982;2022-08-05T03:18:18;3.53;;;2.67;;
17915;SDS011;9083;49.156;8.982;2022-08-05T03:20:44;6.20;;;2.63;;
17915;SDS011;9083;49.156;8.982;2022-08-05T03:23:11;7.32;;;2.67;;
17915;SDS011;9083;49.156;8.982;2022-08-05T03:25:38;5.00;;;3.22;;
17915;SDS011;9083;49.156;8.982;2022-08-05T03:28:07;8.98;;;3.90;;
17915;SDS011;9083;49.156;8.982;2022-08-05T03:30:33;4.53;;;2.65;;
17915;SDS011;9083;49.156;8.982;2022-08-05T03:33:00;9.67;;;3.20;;
17915;SDS011;9083;49.156;8.982;2022-08-05T03:35:27;10.10;;;2.80;;
17915;SDS011;9083;49.156;8.982;2022-08-05T03:37:55;5.40;;;2.60;;
17915;SDS011;9083;49.156;8.982;2022-08-05T03:40:21;6.10;;;2.77;;
17915;SDS011;9083;49.156;8.982;2022-08-05T03:42:48;6.37;;;3.20;;
17915;SDS011;9083;49.156;8.982;2022-08-05T03:45:16;9.87;;;3.37;;
17915;SDS011;9083;49.156;8.982;2022-08-05T03:47:42;6.87;;;3.17;;
17915;SDS011;9083;49.156;8.982;2022-08-05T03:50:09;5.53;;;2.60;;
17915;SDS011;9083;49.156;8.982;2022-08-05T03:52:37;6.20;;;2.70;;
17915;SDS011;9083;49.156;8.982;2022-08-05T03:55:07;6.13;;;2.93;;
17915;SDS011;9083;49.156;8.982;2022-08-05T03:57:35;5.33;;;2.93;;
17915;SDS011;9083;49.156;8.982;2022-08-05T04:00:04;11.53;;;3.40;;
17915;SDS011;9083;49.156;8.982;2022-08-05T04:02:33;7.83;;;2.57;;
17915;SDS011;9083;49.156;8.982;2022-08-05T04:05:01;7.93;;;3.20;;
17915;SDS011;9083;49.156;8.982;2022-08-05T04:07:28;4.83;;;2.60;;
17915;SDS011;9083;49.156;8.982;2022-08-05T04:09:54;8.50;;;3.30;;
17915;SDS011;9083;49.156;8.982;2022-08-05T04:12:21;7.03;;;3.30;;
17915;SDS011;9083;49.156;8.982;2022-08-05T04:14:47;7.60;;;3.17;;
17915;SDS011;9083;49.156;8.982;2022-08-05T04:17:14;8.40;;;3.20;;
17915;SDS011;9083;49.156;8.982;2022-08-05T04:19:43;10.47;;;4.30;;
17915;SDS011;9083;49.156;8.982;2022-08-05T04:22:10;17.20;;;4.23;;
17915;SDS011;9083;49.156;8.982;2022-08-05T04:24:36;15.53;;;4.27;;
17915;SDS011;9083;49.156;8.982;2022-08-05T04:27:03;9.37;;;3.43;;
17915;SDS011;9083;49.156;8.982;2022-08-05T04:29:29;10.13;;;3.70;;
17915;SDS011;9083;49.156;8.982;2022-08-05T04:31:56;2.73;;;2.53;;
17915;SDS011;9083;49.156;8.982;2022-08-05T04:34:22;8.57;;;3.27;;
17915;SDS011;9083;49.156;8.982;2022-08-05T04:36:50;5.77;;;3.17;;
17915;SDS011;9083;49.156;8.982;2022-08-05T04:39:16;8.93;;;3.30;;
17915;SDS011;9083;49.156;8.982;2022-08-05T04:41:43;7.53;;;3.33;;
17915;SDS011;9083;49.156;8.982;2022-08-05T04:44:09;8.87;;;3.63;;
17915;SDS011;9083;49.156;8.982;2022-08-05T04:46:36;10.57;;;4.00;;
17915;SDS011;9083;49.156;8.982;2022-08-05T04:49:06;59.30;;;7.03;;
17915;SDS011;9083;49.156;8.982;2022-08-05T04:51:32;128.33;;;10.37;;
17915;SDS011;9083;49.156;8.982;2022-08-05T04:54:00;117.27;;;10.53;;
17915;SDS011;9083;49.156;8.982;2022-08-05T04:56:26;73.63;;;7.97;;
17915;SDS011;9083;49.156;8.982;2022-08-05T04:58:53;22.10;;;5.03;;
17915;SDS011;9083;49.156;8.982;2022-08-05T05:01:19;7.50;;;3.87;;
17915;SDS011;9083;49.156;8.982;2022-08-05T05:03:46;4.53;;;3.20;;
17915;SDS011;9083;49.156;8.982;2022-08-05T05:06:12;3.93;;;2.87;;
17915;SDS011;9083;49.156;8.982;2022-08-05T05:08:39;6.20;;;3.43;;
17915;SDS011;9083;49.156;8.982;2022-08-05T05:11:07;6.70;;;3.67;;
17915;SDS011;9083;49.156;8.982;2022-08-05T05:13:33;4.63;;;3.10;;
17915;SDS011;9083;49.156;8.982;2022-08-05T05:15:59;23.50;;;4.00;;
17915;SDS011;9083;49.156;8.982;2022-08-05T05:18:26;9.27;;;3.23;;
17915;SDS011;9083;49.156;8.982;2022-08-05T05:20:52;5.47;;;3.30;;
17915;SDS011;9083;49.156;8.982;2022-08-05T05:23:19;19.47;;;3.70;;
17915;SDS011;9083;49.156;8.982;2022-08-05T05:25:45;8.67;;;3.50;;
17915;SDS011;9083;49.156;8.982;2022-08-05T05:28:13;14.23;;;3.83;;
17915;SDS011;9083;49.156;8.982;2022-08-05T05:30:39;9.27;;;4.10;;
17915;SDS011;9083;49.156;8.982;2022-08-05T05:33:06;7.83;;;3.67;;
17915;SDS011;9083;49.156;8.982;2022-08-05T05:35:33;31.07;;;4.63;;
17915;SDS011;9083;49.156;8.982;2022-08-05T05:38:02;13.20;;;4.03;;
17915;SDS011;9083;49.156;8.982;2022-08-05T05:40:29;13.30;;;3.33;;
17915;SDS011;9083;49.156;8.982;2022-08-05T05:42:56;8.63;;;3.47;;
17915;SDS011;9083;49.156;8.982;2022-08-05T05:45:23;8.43;;;2.90;;
17915;SDS011;9083;49.156;8.982;2022-08-05T05:47:53;3.93;;;2.87;;
17915;SDS011;9083;49.156;8.982;2022-08-05T05:50:19;19.53;;;3.53;;
17915;SDS011;9083;49.156;8.982;2022-08-05T05:52:46;6.53;;;3.03;;
17915;SDS011;9083;49.156;8.982;2022-08-05T05:55:13;4.23;;;3.20;;
17915;SDS011;9083;49.156;8.982;2022-08-05T05:57:40;6.07;;;3.23;;
17915;SDS011;9083;49.156;8.982;2022-08-05T06:00:08;5.50;;;3.40;;
17915;SDS011;9083;49.156;8.982;2022-08-05T06:02:36;5.10;;;3.40;;
17915;SDS011;9083;49.156;8.982;2022-08-05T06:05:03;3.17;;;2.63;;
17915;SDS011;9083;49.156;8.982;2022-08-05T06:07:29;5.73;;;2.90;;
17915;SDS011;9083;49.156;8.982;2022-08-05T06:09:56;4.57;;;3.33;;
17915;SDS011;9083;49.156;8.982;2022-08-05T06:12:22;4.50;;;2.87;;
17915;SDS011;9083;49.156;8.982;2022-08-05T06:14:49;9.67;;;3.10;;
17915;SDS011;9083;49.156;8.982;2022-08-05T06:17:15;4.13;;;3.10;;
17915;SDS011;9083;49.156;8.982;2022-08-05T06:19:43;6.63;;;2.97;;
17915;SDS011;9083;49.156;8.982;2022-08-05T06:22:09;12.60;;;3.40;;
17915;SDS011;9083;49.156;8.982;2022-08-05T06:24:40;16.47;;;3.50;;
17915;SDS011;9083;49.156;8.982;2022-08-05T06:27:06;15.27;;;3.50;;
17915;SDS011;9083;49.156;8.982;2022-08-05T06:29:33;8.90;;;2.93;;
17915;SDS011;9083;49.156;8.982;2022-08-05T06:32:00;7.40;;;3.20;;
17915;SDS011;9083;49.156;8.982;2022-08-05T06:34:26;6.77;;;2.80;;
17915;SDS011;9083;49.156;8.982;2022-08-05T06:36:54;3.63;;;2.50;;
17915;SDS011;9083;49.156;8.982;2022-08-05T06:39:20;2.42;;;2.22;;
17915;SDS011;9083;49.156;8.982;2022-08-05T06:41:48;31.10;;;3.80;;
17915;SDS011;9083;49.156;8.982;2022-08-05T06:44:14;5.10;;;2.57;;
17915;SDS011;9083;49.156;8.982;2022-08-05T06:46:40;12.43;;;3.20;;
17915;SDS011;9083;49.156;8.982;2022-08-05T06:49:07;9.80;;;2.80;;
17915;SDS011;9083;49.156;8.982;2022-08-05T06:51:33;7.30;;;2.60;;
17915;SDS011;9083;49.156;8.982;2022-08-05T06:54:02;11.33;;;3.03;;
17915;SDS011;9083;49.156;8.982;2022-08-05T06:56:29;6.73;;;2.67;;
17915;SDS011;9083;49.156;8.982;2022-08-05T06:58:55;8.80;;;2.40;;
17915;SDS011;9083;49.156;8.982;2022-08-05T07:01:22;3.97;;;2.33;;
17915;SDS011;9083;49.156;8.982;2022-08-05T07:03:48;5.90;;;2.70;;
17915;SDS011;9083;49.156;8.982;2022-08-05T07:06:15;3.73;;;2.50;;
17915;SDS011;9083;49.156;8.982;2022-08-05T07:08:41;4.93;;;2.53;;
17915;SDS011;9083;49.156;8.982;2022-08-05T07:11:09;3.60;;;2.40;;
17915;SDS011;9083;49.156;8.982;2022-08-05T07:13:35;3.13;;;2.40;;
17915;SDS011;9083;49.156;8.982;2022-08-05T07:16:19;14.97;;;5.70;;
17915;SDS011;9083;49.156;8.982;2022-08-05T07:19:03;8.77;;;3.30;;
17915;SDS011;9083;49.156;8.982;2022-08-05T07:21:30;10.30;;;3.20;;
17915;SDS011;9083;49.156;8.982;2022-08-05T07:23:56;5.90;;;2.27;;
17915;SDS011;9083;49.156;8.982;2022-08-05T07:26:24;20.40;;;3.45;;
17915;SDS011;9083;49.156;8.982;2022-08-05T07:28:50;32.97;;;4.10;;
17915;SDS011;9083;49.156;8.982;2022-08-05T07:31:17;34.13;;;5.23;;
17915;SDS011;9083;49.156;8.982;2022-08-05T07:33:44;47.75;;;4.03;;
17915;SDS011;9083;49.156;8.982;2022-08-05T07:36:10;54.33;;;6.70;;
17915;SDS011;9083;49.156;8.982;2022-08-05T07:38:36;25.45;;;3.35;;
17915;SDS011;9083;49.156;8.982;2022-08-05T07:41:03;18.92;;;3.60;;
17915;SDS011;9083;49.156;8.982;2022-08-05T07:43:31;35.70;;;4.72;;
17915;SDS011;9083;49.156;8.982;2022-08-05T07:45:57;12.55;;;2.65;;
17915;SDS011;9083;49.156;8.982;2022-08-05T07:48:24;9.18;;;2.67;;
17915;SDS011;9083;49.156;8.982;2022-08-05T07:50:50;6.32;;;2.83;;
17915;SDS011;9083;49.156;8.982;2022-08-05T07:53:17;2.67;;;2.17;;
17915;SDS011;9083;49.156;8.982;2022-08-05T07:55:43;3.33;;;2.35;;
17915;SDS011;9083;49.156;8.982;2022-08-05T07:58:10;4.18;;;2.20;;
17915;SDS011;9083;49.156;8.982;2022-08-05T08:00:37;2.83;;;2.20;;
17915;SDS011;9083;49.156;8.982;2022-08-05T08:03:08;3.15;;;2.10;;
17915;SDS011;9083;49.156;8.982;2022-08-05T08:05:34;2.65;;;2.10;;
17915;SDS011;9083;49.156;8.982;2022-08-05T08:08:01;2.35;;;2.15;;
17915;SDS011;9083;49.156;8.982;2022-08-05T08:10:27;4.68;;;2.00;;
17915;SDS011;9083;49.156;8.982;2022-08-05T08:12:54;6.55;;;2.35;;
17915;SDS011;9083;49.156;8.982;2022-08-05T08:15:20;2.70;;;2.35;;
17915;SDS011;9083;49.156;8.982;2022-08-05T08:17:48;7.25;;;1.77;;
17915;SDS011;9083;49.156;8.982;2022-08-05T08:20:14;29.13;;;3.47;;
17915;SDS011;9083;49.156;8.982;2022-08-05T08:22:41;3.25;;;2.00;;
17915;SDS011;9083;49.156;8.982;2022-08-05T08:25:07;4.82;;;2.25;;
17915;SDS011;9083;49.156;8.982;2022-08-05T08:27:34;3.55;;;2.33;;
17915;SDS011;9083;49.156;8.982;2022-08-05T08:30:04;3.40;;;1.98;;
17915;SDS011;9083;49.156;8.982;2022-08-05T08:32:32;4.22;;;2.50;;
17915;SDS011;9083;49.156;8.982;2022-08-05T08:35:00;18.45;;;2.78;;
17915;SDS011;9083;49.156;8.982;2022-08-05T08:37:26;4.63;;;2.50;;
17915;SDS011;9083;49.156;8.982;2022-08-05T08:39:53;12.52;;;2.65;;
17915;SDS011;9083;49.156;8.982;2022-08-05T08:42:19;5.97;;;2.30;;
17915;SDS011;9083;49.156;8.982;2022-08-05T08:44:47;20.38;;;2.97;;
17915;SDS011;9083;49.156;8.982;2022-08-05T08:47:13;3.67;;;2.28;;
17915;SDS011;9083;49.156;8.982;2022-08-05T08:49:39;6.15;;;2.45;;
17915;SDS011;9083;49.156;8.982;2022-08-05T08:52:11;3.33;;;1.90;;
17915;SDS011;9083;49.156;8.982;2022-08-05T08:54:38;3.35;;;2.58;;
17915;SDS011;9083;49.156;8.982;2022-08-05T08:57:05;6.00;;;2.30;;
17915;SDS011;9083;49.156;8.982;2022-08-05T08:59:31;3.35;;;1.95;;
17915;SDS011;9083;49.156;8.982;2022-08-05T09:01:58;3.28;;;1.95;;
17915;SDS011;9083;49.156;8.982;2022-08-05T09:04:25;2.55;;;1.85;;
17915;SDS011;9083;49.156;8.982;2022-08-05T09:06:52;2.67;;;2.10;;
17915;SDS011;9083;49.156;8.982;2022-08-05T09:09:20;2.40;;;2.05;;
17915;SDS011;9083;49.156;8.982;2022-08-05T09:11:46;8.07;;;2.78;;
17915;SDS011;9083;49.156;8.982;2022-08-05T09:14:13;4.65;;;2.15;;
17915;SDS011;9083;49.156;8.982;2022-08-05T09:16:39;2.38;;;1.70;;
17915;SDS011;9083;49.156;8.982;2022-08-05T09:19:06;5.47;;;1.70;;
17915;SDS011;9083;49.156;8.982;2022-08-05T09:21:32;1.90;;;1.80;;
17915;SDS011;9083;49.156;8.982;2022-08-05T09:24:02;4.28;;;1.95;;
17915;SDS011;9083;49.156;8.982;2022-08-05T09:26:31;2.17;;;2.08;;
17915;SDS011;9083;49.156;8.982;2022-08-05T09:28:58;4.05;;;2.10;;
17915;SDS011;9083;49.156;8.982;2022-08-05T09:31:25;5.43;;;2.17;;
17915;SDS011;9083;49.156;8.982;2022-08-05T09:33:52;2.30;;;1.80;;
17915;SDS011;9083;49.156;8.982;2022-08-05T09:36:19;1.52;;;1.42;;
17915;SDS011;9083;49.156;8.982;2022-08-05T09:38:56;4.20;;;1.70;;
17915;SDS011;9083;49.156;8.982;2022-08-05T09:41:22;4.68;;;2.28;;
17915;SDS011;9083;49.156;8.982;2022-08-05T09:43:50;1.85;;;1.73;;
17915;SDS011;9083;49.156;8.982;2022-08-05T09:46:24;1.85;;;1.70;;
17915;SDS011;9083;49.156;8.982;2022-08-05T09:48:51;2.33;;;2.13;;
17915;SDS011;9083;49.156;8.982;2022-08-05T09:51:26;2.80;;;1.83;;
17915;SDS011;9083;49.156;8.982;2022-08-05T09:53:55;3.35;;;1.85;;
17915;SDS011;9083;49.156;8.982;2022-08-05T09:56:25;2.75;;;1.83;;
17915;SDS011;9083;49.156;8.982;2022-08-05T09:58:57;4.28;;;1.90;;
17915;SDS011;9083;49.156;8.982;2022-08-05T10:01:24;1.70;;;1.60;;
17915;SDS011;9083;49.156;8.982;2022-08-05T10:03:54;2.70;;;2.15;;
17915;SDS011;9083;49.156;8.982;2022-08-05T10:06:20;8.70;;;1.90;;
17915;SDS011;9083;49.156;8.982;2022-08-05T10:08:47;7.47;;;1.60;;
17915;SDS011;9083;49.156;8.982;2022-08-05T10:11:14;12.65;;;2.00;;
17915;SDS011;9083;49.156;8.982;2022-08-05T10:13:41;4.90;;;1.77;;
17915;SDS011;9083;49.156;8.982;2022-08-05T10:18:53;1.58;;;1.30;;
17915;SDS011;9083;49.156;8.982;2022-08-05T10:21:20;2.67;;;1.63;;
17915;SDS011;9083;49.156;8.982;2022-08-05T10:23:46;5.22;;;1.60;;
17915;SDS011;9083;49.156;8.982;2022-08-05T10:26:13;4.20;;;1.48;;
17915;SDS011;9083;49.156;8.982;2022-08-05T10:28:40;8.93;;;1.75;;
17915;SDS011;9083;49.156;8.982;2022-08-05T10:31:06;7.40;;;1.80;;
17915;SDS011;9083;49.156;8.982;2022-08-05T10:33:33;4.25;;;1.88;;
17915;SDS011;9083;49.156;8.982;2022-08-05T10:36:01;3.58;;;1.83;;
17915;SDS011;9083;49.156;8.982;2022-08-05T10:38:29;1.67;;;1.58;;
17915;SDS011;9083;49.156;8.982;2022-08-05T10:40:57;1.73;;;1.60;;
17915;SDS011;9083;49.156;8.982;2022-08-05T10:43:33;4.72;;;1.58;;
17915;SDS011;9083;49.156;8.982;2022-08-05T10:46:01;2.08;;;1.90;;
17915;SDS011;9083;49.156;8.982;2022-08-05T10:48:32;3.25;;;1.52;;
17915;SDS011;9083;49.156;8.982;2022-08-05T10:51:01;2.33;;;1.67;;
17915;SDS011;9083;49.156;8.982;2022-08-05T10:53:38;5.05;;;1.38;;
17915;SDS011;9083;49.156;8.982;2022-08-05T10:56:05;1.75;;;1.65;;
17915;SDS011;9083;49.156;8.982;2022-08-05T10:58:32;1.70;;;1.60;;
17915;SDS011;9083;49.156;8.982;2022-08-05T11:00:59;4.30;;;1.52;;
17915;SDS011;9083;49.156;8.982;2022-08-05T11:03:25;2.83;;;1.80;;
17915;SDS011;9083;49.156;8.982;2022-08-05T11:06:08;2.47;;;1.50;;
17915;SDS011;9083;49.156;8.982;2022-08-05T11:08:34;2.50;;;1.85;;
17915;SDS011;9083;49.156;8.982;2022-08-05T11:13:45;18.05;;;2.95;;
17915;SDS011;9083;49.156;8.982;2022-08-05T11:16:21;3.70;;;1.67;;
17915;SDS011;9083;49.156;8.982;2022-08-05T11:18:47;2.60;;;1.65;;
17915;SDS011;9083;49.156;8.982;2022-08-05T11:24:06;14.38;;;2.78;;
17915;SDS011;9083;49.156;8.982;2022-08-05T11:26:32;2.40;;;1.70;;
17915;SDS011;9083;49.156;8.982;2022-08-05T11:28:59;11.48;;;1.77;;
17915;SDS011;9083;49.156;8.982;2022-08-05T11:31:27;6.18;;;1.98;;
17915;SDS011;9083;49.156;8.982;2022-08-05T11:33:56;18.73;;;2.80;;
17915;SDS011;9083;49.156;8.982;2022-08-05T11:36:42;3.08;;;1.65;;
17915;SDS011;9083;49.156;8.982;2022-08-05T11:39:12;5.53;;;1.85;;
17915;SDS011;9083;49.156;8.982;2022-08-05T11:41:40;6.15;;;1.55;;
17915;SDS011;9083;49.156;8.982;2022-08-05T11:44:07;2.97;;;1.48;;
17915;SDS011;9083;49.156;8.982;2022-08-05T11:46:35;8.82;;;2.10;;
17915;SDS011;9083;49.156;8.982;2022-08-05T11:49:03;7.65;;;1.80;;
17915;SDS011;9083;49.156;8.982;2022-08-05T11:51:29;1.48;;;1.45;;
17915;SDS011;9083;49.156;8.982;2022-08-05T11:53:56;4.78;;;1.73;;
17915;SDS011;9083;49.156;8.982;2022-08-05T11:59:12;4.40;;;1.95;;
17915;SDS011;9083;49.156;8.982;2022-08-05T12:01:50;5.38;;;1.70;;
17915;SDS011;9083;49.156;8.982;2022-08-05T12:04:17;2.50;;;1.63;;
17915;SDS011;9083;49.156;8.982;2022-08-05T12:06:43;3.38;;;1.30;;
17915;SDS011;9083;49.156;8.982;2022-08-05T12:09:10;2.15;;;1.70;;
17915;SDS011;9083;49.156;8.982;2022-08-05T12:11:37;2.10;;;1.60;;
17915;SDS011;9083;49.156;8.982;2022-08-05T12:14:04;4.10;;;2.10;;
17915;SDS011;9083;49.156;8.982;2022-08-05T12:16:33;7.57;;;1.63;;
17915;SDS011;9083;49.156;8.982;2022-08-05T12:19:00;2.03;;;1.92;;
17915;SDS011;9083;49.156;8.982;2022-08-05T12:21:27;2.53;;;1.40;;
17915;SDS011;9083;49.156;8.982;2022-08-05T12:23:56;3.00;;;1.27;;
17915;SDS011;9083;49.156;8.982;2022-08-05T12:26:23;3.65;;;2.03;;
17915;SDS011;9083;49.156;8.982;2022-08-05T12:28:49;6.00;;;1.70;;
17915;SDS011;9083;49.156;8.982;2022-08-05T12:31:16;4.95;;;1.67;;
17915;SDS011;9083;49.156;8.982;2022-08-05T12:33:44;1.95;;;1.70;;
17915;SDS011;9083;49.156;8.982;2022-08-05T12:36:10;5.45;;;1.75;;
17915;SDS011;9083;49.156;8.982;2022-08-05T12:38:37;6.70;;;1.73;;
17915;SDS011;9083;49.156;8.982;2022-08-05T12:41:05;3.60;;;1.60;;
17915;SDS011;9083;49.156;8.982;2022-08-05T12:43:32;2.33;;;2.08;;
17915;SDS011;9083;49.156;8.982;2022-08-05T12:45:58;2.83;;;1.90;;
17915;SDS011;9083;49.156;8.982;2022-08-05T12:48:25;2.25;;;1.95;;
17915;SDS011;9083;49.156;8.982;2022-08-05T12:51:11;1.65;;;1.58;;
17915;SDS011;9083;49.156;8.982;2022-08-05T12:53:41;4.32;;;1.90;;
17915;SDS011;9083;49.156;8.982;2022-08-05T12:56:15;11.23;;;2.40;;
17915;SDS011;9083;49.156;8.982;2022-08-05T12:58:44;8.13;;;2.33;;
17915;SDS011;9083;49.156;8.982;2022-08-05T13:01:14;3.67;;;1.80;;
17915;SDS011;9083;49.156;8.982;2022-08-05T13:03:40;9.57;;;2.10;;
17915;SDS011;9083;49.156;8.982;2022-08-05T13:06:07;13.43;;;3.83;;
17915;SDS011;9083;49.156;8.982;2022-08-05T13:08:37;7.70;;;1.80;;
17915;SDS011;9083;49.156;8.982;2022-08-05T13:11:04;12.20;;;2.35;;
17915;SDS011;9083;49.156;8.982;2022-08-05T13:13:30;5.95;;;2.00;;
17915;SDS011;9083;49.156;8.982;2022-08-05T13:15:56;6.43;;;2.08;;
17915;SDS011;9083;49.156;8.982;2022-08-05T13:18:23;6.80;;;2.50;;
17915;SDS011;9083;49.156;8.982;2022-08-05T13:20:49;4.95;;;2.00;;
17915;SDS011;9083;49.156;8.982;2022-08-05T13:23:16;2.38;;;2.05;;
17915;SDS011;9083;49.156;8.982;2022-08-05T13:25:43;2.13;;;1.95;;
17915;SDS011;9083;49.156;8.982;2022-08-05T13:28:10;6.85;;;2.47;;
17915;SDS011;9083;49.156;8.982;2022-08-05T13:30:37;4.10;;;1.95;;
17915;SDS011;9083;49.156;8.982;2022-08-05T13:33:03;2.55;;;2.35;;
17915;SDS011;9083;49.156;8.982;2022-08-05T13:35:29;6.18;;;2.28;;
17915;SDS011;9083;49.156;8.982;2022-08-05T13:37:56;4.20;;;2.42;;
17915;SDS011;9083;49.156;8.982;2022-08-05T13:40:22;5.50;;;2.60;;
17915;SDS011;9083;49.156;8.982;2022-08-05T13:42:50;5.22;;;2.20;;
17915;SDS011;9083;49.156;8.982;2022-08-05T13:45:16;4.78;;;2.30;;
17915;SDS011;9083;49.156;8.982;2022-08-05T13:47:44;2.88;;;2.67;;
17915;SDS011;9083;49.156;8.982;2022-08-05T13:50:10;3.38;;;2.53;;
17915;SDS011;9083;49.156;8.982;2022-08-05T13:52:37;4.57;;;2.95;;
17915;SDS011;9083;49.156;8.982;2022-08-05T13:55:03;4.43;;;2.95;;
17915;SDS011;9083;49.156;8.982;2022-08-05T13:57:30;3.20;;;2.60;;
17915;SDS011;9083;49.156;8.982;2022-08-05T13:59:58;13.75;;;3.28;;
17915;SDS011;9083;49.156;8.982;2022-08-05T14:02:24;8.20;;;2.60;;
17915;SDS011;9083;49.156;8.982;2022-08-05T14:04:50;7.60;;;2.60;;
17915;SDS011;9083;49.156;8.982;2022-08-05T14:07:36;4.75;;;2.80;;
17915;SDS011;9083;49.156;8.982;2022-08-05T14:10:10;4.45;;;2.88;;
17915;SDS011;9083;49.156;8.982;2022-08-05T14:12:36;6.03;;;3.10;;
17915;SDS011;9083;49.156;8.982;2022-08-05T14:15:05;5.80;;;2.47;;
17915;SDS011;9083;49.156;8.982;2022-08-05T14:17:31;4.47;;;2.30;;
17915;SDS011;9083;49.156;8.982;2022-08-05T14:19:58;2.95;;;2.75;;
17915;SDS011;9083;49.156;8.982;2022-08-05T14:22:24;3.78;;;2.08;;
17915;SDS011;9083;49.156;8.982;2022-08-05T14:24:51;3.53;;;2.50;;
17915;SDS011;9083;49.156;8.982;2022-08-05T14:27:17;3.20;;;2.97;;
17915;SDS011;9083;49.156;8.982;2022-08-05T14:29:44;3.20;;;2.65;;
17915;SDS011;9083;49.156;8.982;2022-08-05T14:32:15;5.80;;;2.80;;
17915;SDS011;9083;49.156;8.982;2022-08-05T14:34:41;3.72;;;2.53;;
17915;SDS011;9083;49.156;8.982;2022-08-05T14:37:08;4.95;;;2.40;;
17915;SDS011;9083;49.156;8.982;2022-08-05T14:39:34;2.50;;;2.33;;
17915;SDS011;9083;49.156;8.982;2022-08-05T14:42:01;4.22;;;2.50;;
17915;SDS011;9083;49.156;8.982;2022-08-05T14:44:27;2.88;;;2.65;;
17915;SDS011;9083;49.156;8.982;2022-08-05T14:46:54;2.78;;;2.58;;
17915;SDS011;9083;49.156;8.982;2022-08-05T14:49:21;3.90;;;2.45;;
17915;SDS011;9083;49.156;8.982;2022-08-05T14:51:48;3.88;;;2.75;;
17915;SDS011;9083;49.156;8.982;2022-08-05T14:54:14;2.42;;;2.22;;
17915;SDS011;9083;49.156;8.982;2022-08-05T14:56:41;3.75;;;2.50;;
17915;SDS011;9083;49.156;8.982;2022-08-05T14:59:07;6.60;;;2.90;;
17915;SDS011;9083;49.156;8.982;2022-08-05T15:01:33;3.10;;;2.85;;
17915;SDS011;9083;49.156;8.982;2022-08-05T15:04:00;2.67;;;2.47;;
17915;SDS011;9083;49.156;8.982;2022-08-05T15:06:28;3.38;;;2.78;;
17915;SDS011;9083;49.156;8.982;2022-08-05T15:08:54;2.90;;;2.70;;
17915;SDS011;9083;49.156;8.982;2022-08-05T15:11:21;2.88;;;2.55;;
17915;SDS011;9083;49.156;8.982;2022-08-05T15:13:47;3.28;;;2.70;;